TGW5 YPPH-WSSS
Flight info
| Callsign | TGW5 |
|---|---|
| Flight time | N/A |
| Altitude | 40000 |
| Route | DCT PH Y15 AVNEX N752 BOLAK/N0481F430 N752 PLB G579 SJ DCT |
| Aircraft | B788/H-SDRP2G1WXJ2J3J5M1E1E2E3HY/LB1D1 |
Departure
| Time | 2026-05-06 02:01 |
|---|---|
| Airport | Perth International Airport (YPPH) |
Arrival
| Time | N/A |
|---|---|
| Airport | Singapore Changi Airport (WSSS) |
| Time | Latitude | Longitude | Altitude | Speed | Heading |
|---|---|---|---|---|---|
| 2026-05-06 01:52 | -31.94012 | 115.97376 | 50 ft | 0 kts | 162° |
| 2026-05-06 01:53 | -31.93989 | 115.97367 | 49 ft | 4 kts | 162° |
| 2026-05-06 01:53 | -31.93963 | 115.97357 | 52 ft | 4 kts | 162° |
| 2026-05-06 01:53 | -31.93939 | 115.97348 | 54 ft | 4 kts | 165° |
| 2026-05-06 01:54 | -31.93921 | 115.97351 | 49 ft | 4 kts | 240° |
| 2026-05-06 01:54 | -31.93912 | 115.97380 | 54 ft | 4 kts | 264° |
| 2026-05-06 01:54 | -31.93912 | 115.97393 | 54 ft | 1 kts | 267° |
| 2026-05-06 01:56 | -31.93912 | 115.97388 | 54 ft | 3 kts | 267° |
| 2026-05-06 01:56 | -31.93914 | 115.97329 | 52 ft | 12 kts | 265° |
| 2026-05-06 01:56 | -31.93948 | 115.97248 | 51 ft | 13 kts | 239° |
| 2026-05-06 01:57 | -31.93956 | 115.97140 | 48 ft | 15 kts | 283° |
| 2026-05-06 01:57 | -31.93930 | 115.97009 | 48 ft | 18 kts | 285° |
| 2026-05-06 01:57 | -31.93931 | 115.96907 | 52 ft | 12 kts | 234° |
| 2026-05-06 01:57 | -31.94013 | 115.96863 | 49 ft | 14 kts | 196° |
| 2026-05-06 01:58 | -31.94115 | 115.96836 | 55 ft | 16 kts | 192° |
| 2026-05-06 01:58 | -31.94233 | 115.96802 | 48 ft | 19 kts | 196° |
| 2026-05-06 01:58 | -31.94365 | 115.96760 | 51 ft | 21 kts | 194° |
| 2026-05-06 01:58 | -31.94511 | 115.96719 | 51 ft | 22 kts | 194° |
| 2026-05-06 01:59 | -31.94670 | 115.96673 | 51 ft | 25 kts | 194° |
| 2026-05-06 01:59 | -31.94842 | 115.96622 | 51 ft | 26 kts | 194° |
| 2026-05-06 01:59 | -31.95026 | 115.96568 | 53 ft | 28 kts | 194° |
| 2026-05-06 01:59 | -31.95122 | 115.96509 | 49 ft | 13 kts | 239° |
| 2026-05-06 02:00 | -31.95116 | 115.96397 | 53 ft | 16 kts | 283° |
| 2026-05-06 02:00 | -31.95087 | 115.96261 | 54 ft | 17 kts | 284° |
| 2026-05-06 02:00 | -31.95060 | 115.96210 | 53 ft | 5 kts | 337° |
| 2026-05-06 02:00 | -31.95018 | 115.96217 | 54 ft | 9 kts | 14° |
| 2026-05-06 02:01 | -31.94738 | 115.96299 | 48 ft | 84 kts | 14° |
| 2026-05-06 02:01 | -31.93892 | 115.96546 | 63 ft | 162 kts | 15° |
| 2026-05-06 02:01 | -31.92722 | 115.96880 | 781 ft | 179 kts | 18° |
| 2026-05-06 02:01 | -31.91491 | 115.97243 | 1699 ft | 189 kts | 19° |
| 2026-05-06 02:02 | -31.90149 | 115.97644 | 2283 ft | 205 kts | 19° |
| 2026-05-06 02:02 | -31.88732 | 115.97985 | 3124 ft | 211 kts | 9° |
| 2026-05-06 02:02 | -31.87280 | 115.97661 | 3995 ft | 221 kts | 336° |
| 2026-05-06 02:02 | -31.86168 | 115.96325 | 4547 ft | 246 kts | 298° |
| 2026-05-06 02:03 | -31.85722 | 115.94307 | 4976 ft | 269 kts | 278° |
| 2026-05-06 02:03 | -31.85514 | 115.92084 | 5755 ft | 276 kts | 276° |
| 2026-05-06 02:03 | -31.85296 | 115.89837 | 6714 ft | 277 kts | 277° |
| 2026-05-06 02:03 | -31.85050 | 115.87581 | 7686 ft | 280 kts | 277° |
| 2026-05-06 02:04 | -31.84783 | 115.85295 | 8589 ft | 284 kts | 277° |